To NAV CANADA Home Page Login to a new session Search on AWWS site Feedback and Comments Disclaimer Vers la page française équivalente Tips FAQ What's new on the site To the Forecasts and Observations / NOTAM section To "File a Flight Plan" website Publications and other links Update of the User's profile FIC Telephone Numbers My Weather Data Folder Route Weather Data Regional Weather Data Local Weather Data To the Forecasts and Observations / NOTAM section
Request Generated 04/23/2014 at 14:53:35 UTC . Weather information available at that time is displayed.

METAR/TAF

NORTH BATTLEFORD/SK    (show WxCam)

METAR CYQW 231400Z AUTO 11019G29KT 9SM BKN085 07/02 A2955 RMK MAX WND
10024KT AT 1350Z SLP016=
METAR CYQW 231300Z AUTO 10021G31KT 9SM FEW140 07/02 A2954 RMK MAX WND
10025KT AT 1215Z SLP012=
METAR CYQW 231200Z AUTO 10023G28KT 9SM SCT200 SCT220 06/02 A2956 RMK
MAX WND 09024KT AT 1107Z SLP017=

TAF CYQW 231138Z 2312/2324 09020G30KT P6SM BKN120
BECMG 2315/2317 P6SM -RA SCT030 BKN080
FM231800 11025G35KT P6SM -RA SCT020 OVC060 TEMPO 2318/2321 5SM
-RA BR OVC020
FM232100 11025G35KT P6SM -RA OVC020 TEMPO 2321/2324 4SM -RA BR
OVC006
RMK FCST BASED ON AUTO OBS. NXT FCST BY 231800Z=
Your time UTC time
Weather data provided by Environment Canada and NAV CANADA